Time,TemperatureF,DewpointF,PressureIn,WindDirection,WindDirectionDegrees,WindSpeedMPH,WindSpeedGustMPH,Humidity,HourlyPrecipIn,Conditions,Clouds,dailyrainin,SoftwareType,DateUTC
2013-01-03 00:01:00,25.3,20.3,30.60,SE,135,0.0,6.0,81,0.00,,,0.00,WUHU21623XXSP,2013-01-03 05:01:00,
2013-01-03 00:02:00,25.3,20.3,30.60,SE,135,0.0,6.0,81,0.00,,,0.00,WUHU21623XXSP,2013-01-03 05:02:00,
2013-01-03 00:03:00,25.3,20.3,30.60,SE,135,0.0,6.0,81,0.00,,,0.00,WUHU21623XXSP,2013-01-03 05:03:00,
2013-01-03 00:08:00,25.3,20.3,30.60,NE,45,0.0,0.0,81,0.00,,,0.00,WUHU21623XXSP,2013-01-03 05:08:00,
2013-01-03 00:13:00,25.3,20.3,30.60,East,90,0.0,0.0,81,0.00,,,0.00,WUHU21623XXSP,2013-01-03 05:13:00,
2013-01-03 00:18:00,25.3,20.3,30.59,East,90,0.0,0.0,81,0.00,,,0.00,WUHU21623XXSP,2013-01-03 05:18:00,
2013-01-03 00:23:00,25.3,20.3,30.60,NE,45,0.0,0.0,81,0.00,,,0.00,WUHU21623XXSP,2013-01-03 05:23:00,
2013-01-03 00:28:00,25.3,20.3,30.60,NE,45,0.0,0.0,81,0.00,,,0.00,WUHU21623XXSP,2013-01-03 05:28:00,
2013-01-03 00:33:00,25.3,20.3,30.60,NE,45,0.0,0.0,81,0.00,,,0.00,WUHU21623XXSP,2013-01-03 05:33:00,
2013-01-03 00:38:00,25.3,20.3,30.60,NNE,22,0.0,0.0,81,0.00,,,0.00,WUHU21623XXSP,2013-01-03 05:38:00,
2013-01-03 00:43:00,25.3,20.3,30.60,NNE,22,2.0,2.0,81,0.00,,,0.00,WUHU21623XXSP,2013-01-03 05:43:00,
2013-01-03 00:48:00,25.3,20.3,30.60,NNE,22,0.0,2.0,81,0.00,,,0.00,WUHU21623XXSP,2013-01-03 05:48:00,
2013-01-03 00:53:00,25.3,20.3,30.60,ENE,67,0.0,0.0,81,0.00,,,0.00,WUHU21623XXSP,2013-01-03 05:53:00,
2013-01-03 00:58:00,25.3,20.3,30.60,East,90,0.0,0.0,81,0.00,,,0.00,WUHU21623XXSP,2013-01-03 05:58:00,
2013-01-03 01:03:00,25.3,20.3,30.60,East,90,0.0,0.0,81,0.00,,,0.00,WUHU21623XXSP,2013-01-03 06:03:00,
2013-01-03 01:08:00,25.3,20.1,30.60,ENE,67,0.0,3.1,80,0.00,,,0.00,WUHU21623XXSP,2013-01-03 06:08:00,
2013-01-03 01:13:00,25.2,19.9,30.60,NNE,22,0.9,3.1,80,0.00,,,0.00,WUHU21623XXSP,2013-01-03 06:13:00,
2013-01-03 01:18:00,25.2,19.9,30.60,NNE,22,0.0,0.9,80,0.00,,,0.00,WUHU21623XXSP,2013-01-03 06:18:00,
2013-01-03 01:23:00,25.2,19.6,30.60,East,90,0.0,0.0,79,0.00,,,0.00,WUHU21623XXSP,2013-01-03 06:23:00,
2013-01-03 01:28:00,25.0,19.4,30.60,SSW,202,0.0,0.0,79,0.00,,,0.00,WUHU21623XXSP,2013-01-03 06:28:00,
2013-01-03 01:33:00,25.0,19.4,30.59,East,90,0.0,0.0,79,0.00,,,0.00,WUHU21623XXSP,2013-01-03 06:33:00,
2013-01-03 01:38:00,25.0,19.4,30.59,NE,45,0.0,0.0,79,0.00,,,0.00,WUHU21623XXSP,2013-01-03 06:38:00,
2013-01-03 01:43:00,24.6,18.8,30.59,East,90,0.0,0.0,78,0.00,,,0.00,WUHU21623XXSP,2013-01-03 06:43:00,
2013-01-03 01:48:00,24.6,18.8,30.59,East,90,1.8,1.8,78,0.00,,,0.00,WUHU21623XXSP,2013-01-03 06:48:00,
2013-01-03 01:53:00,24.6,18.8,30.59,North,0,0.0,1.8,78,0.00,,,0.00,WUHU21623XXSP,2013-01-03 06:53:00,
2013-01-03 01:58:00,24.4,18.8,30.59,SE,135,0.0,0.0,78,0.00,,,0.00,WUHU21623XXSP,2013-01-03 06:58:00,
2013-01-03 02:03:00,24.4,18.6,30.60,WSW,247,0.0,0.0,78,0.00,,,0.00,WUHU21623XXSP,2013-01-03 07:03:00,
2013-01-03 02:08:00,24.3,18.1,30.60,East,90,0.0,0.0,77,0.00,,,0.00,WUHU21623XXSP,2013-01-03 07:08:00,
2013-01-03 02:13:00,24.1,17.9,30.60,SSE,157,0.0,0.0,77,0.00,,,0.00,WUHU21623XXSP,2013-01-03 07:13:00,
2013-01-03 02:18:00,23.9,17.4,30.59,North,0,0.0,0.0,76,0.00,,,0.00,WUHU21623XXSP,2013-01-03 07:18:00,
2013-01-03 02:24:00,23.7,17.2,30.59,NW,315,0.0,0.0,76,0.00,,,0.00,WUHU21623XXSP,2013-01-03 07:24:00,
2013-01-03 02:29:00,23.5,17.1,30.58,NW,315,0.0,0.0,76,0.00,,,0.00,WUHU21623XXSP,2013-01-03 07:29:00,
2013-01-03 02:34:00,23.5,17.1,30.59,North,0,0.0,0.0,76,0.00,,,0.00,WUHU21623XXSP,2013-01-03 07:34:00,
2013-01-03 02:39:00,23.4,16.9,30.58,NNW,337,0.0,0.0,76,0.00,,,0.00,WUHU21623XXSP,2013-01-03 07:39:00,
2013-01-03 02:44:00,23.4,16.9,30.58,SE,135,0.0,0.0,76,0.00,,,0.00,WUHU21623XXSP,2013-01-03 07:44:00,
2013-01-03 02:49:00,23.2,16.7,30.58,South,180,0.0,0.0,76,0.00,,,0.00,WUHU21623XXSP,2013-01-03 07:49:00,
2013-01-03 02:54:00,23.0,16.6,30.58,East,90,0.0,0.0,76,0.00,,,0.00,WUHU21623XXSP,2013-01-03 07:54:00,
2013-01-03 02:59:00,23.0,16.6,30.58,East,90,0.0,0.0,76,0.00,,,0.00,WUHU21623XXSP,2013-01-03 07:59:00,
2013-01-03 03:04:00,22.8,16.4,30.59,ENE,67,0.0,0.0,76,0.00,,,0.00,WUHU21623XXSP,2013-01-03 08:04:00,
2013-01-03 03:09:00,22.8,16.4,30.58,ENE,67,0.0,0.0,76,0.00,,,0.00,WUHU21623XXSP,2013-01-03 08:09:00,
2013-01-03 03:14:00,22.6,16.2,30.58,South,180,2.2,2.2,76,0.00,,,0.00,WUHU21623XXSP,2013-01-03 08:14:00,
2013-01-03 03:19:00,22.6,16.2,30.58,SE,135,0.0,2.2,76,0.00,,,0.00,WUHU21623XXSP,2013-01-03 08:19:00,
2013-01-03 03:24:00,22.5,16.2,30.58,NNE,22,0.0,0.0,76,0.00,,,0.00,WUHU21623XXSP,2013-01-03 08:24:00,
2013-01-03 03:29:00,22.3,15.8,30.58,South,180,0.0,0.0,76,0.00,,,0.00,WUHU21623XXSP,2013-01-03 08:29:00,
2013-01-03 03:34:00,22.3,16.1,30.57,East,90,0.0,0.0,77,0.00,,,0.00,WUHU21623XXSP,2013-01-03 08:34:00,
2013-01-03 03:39:00,22.3,16.1,30.58,North,0,0.0,0.0,77,0.00,,,0.00,WUHU21623XXSP,2013-01-03 08:39:00,
2013-01-03 03:44:00,22.1,16.0,30.57,East,90,0.0,0.0,77,0.00,,,0.00,WUHU21623XXSP,2013-01-03 08:44:00,
2013-01-03 03:49:00,22.1,16.0,30.56,NNW,337,0.0,0.0,77,0.00,,,0.00,WUHU21623XXSP,2013-01-03 08:49:00,
2013-01-03 03:54:00,22.1,16.0,30.56,East,90,0.0,0.0,77,0.00,,,0.00,WUHU21623XXSP,2013-01-03 08:54:00,
2013-01-03 03:59:00,21.9,15.8,30.56,North,0,0.0,2.0,77,0.00,,,0.00,WUHU21623XXSP,2013-01-03 08:59:00,
2013-01-03 04:04:00,21.9,15.8,30.56,ENE,67,0.0,2.0,77,0.00,,,0.00,WUHU21623XXSP,2013-01-03 09:04:00,
2013-01-03 04:09:00,21.9,15.8,30.56,East,90,0.0,0.0,77,0.00,,,0.00,WUHU21623XXSP,2013-01-03 09:09:00,
2013-01-03 04:14:00,21.9,15.8,30.56,East,90,0.0,0.0,77,0.00,,,0.00,WUHU21623XXSP,2013-01-03 09:14:00,
2013-01-03 04:19:00,21.9,15.5,30.56,North,0,0.0,0.0,76,0.00,,,0.00,WUHU21623XXSP,2013-01-03 09:19:00,
2013-01-03 04:24:00,21.7,15.3,30.55,SW,225,0.0,0.0,76,0.00,,,0.00,WUHU21623XXSP,2013-01-03 09:24:00,
2013-01-03 04:29:00,21.7,15.3,30.55,South,180,0.0,0.0,76,0.00,,,0.00,WUHU21623XXSP,2013-01-03 09:29:00,
2013-01-03 04:34:00,21.7,15.3,30.56,SSW,202,0.0,0.0,76,0.00,,,0.00,WUHU21623XXSP,2013-01-03 09:34:00,
2013-01-03 04:39:00,21.7,15.3,30.55,East,90,0.0,0.0,76,0.00,,,0.00,WUHU21623XXSP,2013-01-03 09:39:00,
2013-01-03 04:44:00,21.7,15.3,30.55,SE,135,0.0,0.0,76,0.00,,,0.00,WUHU21623XXSP,2013-01-03 09:44:00,
2013-01-03 04:49:00,21.6,15.1,30.55,NE,45,0.0,0.0,76,0.00,,,0.00,WUHU21623XXSP,2013-01-03 09:49:00,
2013-01-03 04:54:00,21.4,14.9,30.54,East,90,0.0,0.0,76,0.00,,,0.00,WUHU21623XXSP,2013-01-03 09:54:00,
2013-01-03 04:59:00,21.4,14.9,30.54,SW,225,0.0,0.0,76,0.00,,,0.00,WUHU21623XXSP,2013-01-03 09:59:00,
2013-01-03 05:04:00,21.4,14.9,30.54,ENE,67,0.0,0.0,76,0.00,,,0.00,WUHU21623XXSP,2013-01-03 10:04:00,
2013-01-03 05:09:00,21.4,14.9,30.54,SW,225,0.0,0.0,76,0.00,,,0.00,WUHU21623XXSP,2013-01-03 10:09:00,
2013-01-03 05:15:00,21.4,14.9,30.54,ENE,67,0.0,0.0,76,0.00,,,0.00,WUHU21623XXSP,2013-01-03 10:15:00,
2013-01-03 05:20:00,21.4,14.9,30.54,West,270,0.0,0.0,76,0.00,,,0.00,WUHU21623XXSP,2013-01-03 10:20:00,
2013-01-03 05:25:00,21.4,14.9,30.53,SSW,202,0.0,0.0,76,0.00,,,0.00,WUHU21623XXSP,2013-01-03 10:25:00,
2013-01-03 05:30:00,21.4,14.9,30.53,SSW,202,0.0,0.0,76,0.00,,,0.00,WUHU21623XXSP,2013-01-03 10:30:00,
2013-01-03 05:35:00,21.4,15.2,30.53,ENE,67,0.0,0.0,77,0.00,,,0.00,WUHU21623XXSP,2013-01-03 10:35:00,
2013-01-03 05:40:00,21.4,15.2,30.54,NE,45,0.0,0.0,77,0.00,,,0.00,WUHU21623XXSP,2013-01-03 10:40:00,
2013-01-03 05:45:00,21.4,15.2,30.53,NNE,22,1.6,1.6,77,0.00,,,0.00,WUHU21623XXSP,2013-01-03 10:45:00,
2013-01-03 05:50:00,21.4,15.2,30.53,ENE,67,0.0,1.6,77,0.00,,,0.00,WUHU21623XXSP,2013-01-03 10:50:00,
2013-01-03 05:55:00,21.4,15.2,30.53,East,90,0.0,0.0,77,0.00,,,0.00,WUHU21623XXSP,2013-01-03 10:55:00,
2013-01-03 06:00:00,21.4,15.5,30.53,ESE,112,0.0,0.0,78,0.00,,,0.00,WUHU21623XXSP,2013-01-03 11:00:00,
2013-01-03 06:05:00,21.2,15.4,30.53,ENE,67,0.0,0.0,78,0.00,,,0.00,WUHU21623XXSP,2013-01-03 11:05:00,
2013-01-03 06:10:00,21.4,15.5,30.52,ENE,67,0.0,0.0,78,0.00,,,0.00,WUHU21623XXSP,2013-01-03 11:10:00,
2013-01-03 06:15:00,21.2,15.4,30.53,NE,45,0.0,0.0,78,0.00,,,0.00,WUHU21623XXSP,2013-01-03 11:15:00,
2013-01-03 06:20:00,21.0,15.2,30.53,NNE,22,0.0,0.0,78,0.00,,,0.00,WUHU21623XXSP,2013-01-03 11:20:00,
2013-01-03 06:25:00,21.0,15.2,30.52,East,90,0.0,0.0,78,0.00,,,0.00,WUHU21623XXSP,2013-01-03 11:25:00,
2013-01-03 06:30:00,21.0,15.2,30.52,NNE,22,0.0,0.0,78,0.00,,,0.00,WUHU21623XXSP,2013-01-03 11:30:00,
2013-01-03 06:35:00,21.0,15.5,30.52,NNE,22,0.0,0.0,79,0.00,,,0.00,WUHU21623XXSP,2013-01-03 11:35:00,
2013-01-03 06:40:00,21.0,15.5,30.51,NNW,337,0.0,0.0,79,0.00,,,0.00,WUHU21623XXSP,2013-01-03 11:40:00,
2013-01-03 06:45:00,21.0,15.5,30.51,South,180,0.0,0.0,79,0.00,,,0.00,WUHU21623XXSP,2013-01-03 11:45:00,
2013-01-03 06:50:00,21.0,15.5,30.51,NNW,337,0.0,0.0,79,0.00,,,0.00,WUHU21623XXSP,2013-01-03 11:50:00,
2013-01-03 06:55:00,21.0,15.5,30.51,East,90,0.0,0.0,79,0.00,,,0.00,WUHU21623XXSP,2013-01-03 11:55:00,
2013-01-03 07:00:00,21.0,15.5,30.51,NNE,22,0.0,0.0,79,0.00,,,0.00,WUHU21623XXSP,2013-01-03 12:00:00,
2013-01-03 07:05:00,21.0,15.5,30.51,NE,45,0.0,0.0,79,0.00,,,0.00,WUHU21623XXSP,2013-01-03 12:05:00,
2013-01-03 07:10:00,21.0,15.5,30.51,WSW,247,0.0,0.0,79,0.00,,,0.00,WUHU21623XXSP,2013-01-03 12:10:00,
2013-01-03 07:15:00,21.0,15.5,30.51,ESE,112,0.0,0.0,79,0.00,,,0.00,WUHU21623XXSP,2013-01-03 12:15:00,
2013-01-03 07:20:00,20.8,15.3,30.51,ESE,112,0.0,0.0,79,0.00,,,0.00,WUHU21623XXSP,2013-01-03 12:20:00,
2013-01-03 07:25:00,21.0,15.3,30.51,ESE,112,0.0,0.0,79,0.00,,,0.00,WUHU21623XXSP,2013-01-03 12:25:00,
2013-01-03 07:30:00,21.0,15.5,30.52,ENE,67,2.2,2.2,79,0.00,,,0.00,WUHU21623XXSP,2013-01-03 12:30:00,
2013-01-03 07:35:00,20.8,15.3,30.51,SSE,157,0.0,2.2,79,0.00,,,0.00,WUHU21623XXSP,2013-01-03 12:35:00,
2013-01-03 07:40:00,21.0,15.5,30.51,East,90,0.0,2.2,79,0.00,,,0.00,WUHU21623XXSP,2013-01-03 12:40:00,
2013-01-03 07:45:00,21.0,15.5,30.51,NE,45,0.0,0.0,79,0.00,,,0.00,WUHU21623XXSP,2013-01-03 12:45:00,
2013-01-03 07:50:00,21.0,15.5,30.51,NNW,337,0.0,0.0,79,0.00,,,0.00,WUHU21623XXSP,2013-01-03 12:50:00,
2013-01-03 07:55:00,21.0,15.5,30.51,WSW,247,0.0,0.0,79,0.00,,,0.00,WUHU21623XXSP,2013-01-03 12:55:00,
2013-01-03 08:00:00,21.2,15.7,30.53,ENE,67,0.0,0.0,79,0.00,,,0.00,WUHU21623XXSP,2013-01-03 13:00:00,
2013-01-03 08:05:00,21.2,15.7,30.52,East,90,0.0,0.0,79,0.00,,,0.00,WUHU21623XXSP,2013-01-03 13:05:00,
2013-01-03 08:10:00,21.4,15.9,30.52,NE,45,3.8,3.8,79,0.00,,,0.00,WUHU21623XXSP,2013-01-03 13:10:00,
2013-01-03 08:15:00,21.4,15.9,30.52,NE,45,1.6,3.8,79,0.00,,,0.00,WUHU21623XXSP,2013-01-03 13:15:00,
2013-01-03 08:20:00,21.4,15.9,30.52,NE,45,0.0,1.6,79,0.00,,,0.00,WUHU21623XXSP,2013-01-03 13:20:00,
2013-01-03 08:25:00,21.6,16.0,30.52,NNE,22,0.0,0.0,79,0.00,,,0.00,WUHU21623XXSP,2013-01-03 13:25:00,
2013-01-03 08:30:00,21.6,16.0,30.53,East,90,0.0,0.0,79,0.00,,,0.00,WUHU21623XXSP,2013-01-03 13:30:00,
2013-01-03 08:35:00,21.6,16.0,30.53,East,90,0.0,0.0,79,0.00,,,0.00,WUHU21623XXSP,2013-01-03 13:35:00,
2013-01-03 08:40:00,21.6,16.0,30.53,NNE,22,0.0,0.0,79,0.00,,,0.00,WUHU21623XXSP,2013-01-03 13:40:00,
2013-01-03 08:45:00,21.7,16.2,30.53,East,90,0.0,0.0,79,0.00,,,0.00,WUHU21623XXSP,2013-01-03 13:45:00,
2013-01-03 08:50:00,21.7,16.2,30.53,ESE,112,0.0,0.0,79,0.00,,,0.00,WUHU21623XXSP,2013-01-03 13:50:00,
2013-01-03 08:55:00,21.7,16.2,30.53,East,90,0.0,0.0,79,0.00,,,0.00,WUHU21623XXSP,2013-01-03 13:55:00,
2013-01-03 09:00:00,21.9,16.4,30.53,SE,135,0.0,0.0,79,0.00,,,0.00,WUHU21623XXSP,2013-01-03 14:00:00,
2013-01-03 09:05:00,21.9,16.4,30.53,East,90,0.0,0.0,79,0.00,,,0.00,WUHU21623XXSP,2013-01-03 14:05:00,
2013-01-03 09:10:00,22.1,16.9,30.53,West,270,0.0,0.0,80,0.00,,,0.00,WUHU21623XXSP,2013-01-03 14:10:00,
2013-01-03 09:15:00,22.1,16.9,30.53,East,90,0.0,0.0,80,0.00,,,0.00,WUHU21623XXSP,2013-01-03 14:15:00,
2013-01-03 09:20:00,22.5,17.2,30.53,WNW,292,0.0,0.0,80,0.00,,,0.00,WUHU21623XXSP,2013-01-03 14:20:00,
2013-01-03 09:25:00,22.5,17.2,30.53,East,90,0.0,0.0,79,0.00,,,0.00,WUHU21623XXSP,2013-01-03 14:25:00,
2013-01-03 09:30:00,22.5,17.2,30.53,NE,45,0.0,5.1,80,0.00,,,0.00,WUHU21623XXSP,2013-01-03 14:30:00,
2013-01-03 09:35:00,22.6,17.4,30.53,North,0,0.0,5.1,80,0.00,,,0.00,WUHU21623XXSP,2013-01-03 14:35:00,
2013-01-03 09:40:00,22.6,17.4,30.53,East,90,0.0,0.0,80,0.00,,,0.00,WUHU21623XXSP,2013-01-03 14:40:00,
2013-01-03 09:45:00,22.6,17.1,30.53,East,90,0.0,0.0,79,0.00,,,0.00,WUHU21623XXSP,2013-01-03 14:45:00,
2013-01-03 09:50:00,22.8,17.3,30.53,NE,45,0.0,0.0,79,0.00,,,0.00,WUHU21623XXSP,2013-01-03 14:50:00,
2013-01-03 09:55:00,22.8,17.3,30.53,NNE,22,0.0,0.0,79,0.00,,,0.00,WUHU21623XXSP,2013-01-03 14:55:00,
2013-01-03 10:00:00,22.8,17.6,30.53,East,90,0.0,0.0,80,0.00,,,0.00,WUHU21623XXSP,2013-01-03 15:00:00,
2013-01-03 10:05:00,23.0,17.8,30.52,East,90,0.0,0.0,80,0.00,,,0.00,WUHU21623XXSP,2013-01-03 15:05:00,
2013-01-03 10:10:00,23.4,18.0,30.53,East,90,0.0,0.0,80,0.00,,,0.00,WUHU21623XXSP,2013-01-03 15:10:00,
2013-01-03 10:16:00,23.4,18.1,30.53,ESE,112,0.0,0.0,80,0.00,,,0.00,WUHU21623XXSP,2013-01-03 15:16:00,
2013-01-03 10:21:00,23.5,18.3,30.53,East,90,0.0,0.0,80,0.00,,,0.00,WUHU21623XXSP,2013-01-03 15:21:00,
2013-01-03 10:26:00,23.7,18.5,30.53,East,90,0.0,1.1,80,0.00,,,0.00,WUHU21623XXSP,2013-01-03 15:26:00,
2013-01-03 10:31:00,23.7,18.5,30.53,NE,45,0.0,1.1,80,0.00,,,0.00,WUHU21623XXSP,2013-01-03 15:31:00,
2013-01-03 10:36:00,23.7,18.5,30.53,NNW,337,0.0,0.0,80,0.00,,,0.00,WUHU21623XXSP,2013-01-03 15:36:00,
2013-01-03 10:41:00,24.1,18.9,30.53,East,90,0.0,0.0,80,0.00,,,0.00,WUHU21623XXSP,2013-01-03 15:41:00,
2013-01-03 10:46:00,24.1,18.9,30.53,East,90,0.0,0.0,80,0.00,,,0.00,WUHU21623XXSP,2013-01-03 15:46:00,
2013-01-03 10:51:00,24.4,19.2,30.53,NE,45,1.6,1.6,80,0.00,,,0.00,WUHU21623XXSP,2013-01-03 15:51:00,
2013-01-03 10:56:00,24.6,19.4,30.53,WSW,247,0.0,1.6,80,0.00,,,0.00,WUHU21623XXSP,2013-01-03 15:56:00,
2013-01-03 11:01:00,24.6,19.4,30.53,ESE,112,0.0,0.0,80,0.00,,,0.00,WUHU21623XXSP,2013-01-03 16:01:00,
2013-01-03 11:06:00,24.6,19.4,30.53,North,0,0.9,0.9,80,0.00,,,0.00,WUHU21623XXSP,2013-01-03 16:06:00,
2013-01-03 11:11:00,25.2,19.9,30.53,ENE,67,0.0,0.9,80,0.00,,,0.00,WUHU21623XXSP,2013-01-03 16:11:00,
2013-01-03 11:16:00,25.3,20.1,30.53,ENE,67,0.0,0.0,80,0.00,,,0.00,WUHU21623XXSP,2013-01-03 16:16:00,
2013-01-03 11:21:00,25.3,20.1,30.53,East,90,0.0,0.0,80,0.00,,,0.00,WUHU21623XXSP,2013-01-03 16:21:00,
2013-01-03 11:26:00,25.5,20.2,30.53,East,90,0.0,6.5,80,0.00,,,0.00,WUHU21623XXSP,2013-01-03 16:26:00,
2013-01-03 11:31:00,25.7,20.4,30.53,East,90,0.0,6.5,80,0.00,,,0.00,WUHU21623XXSP,2013-01-03 16:31:00,
2013-01-03 11:36:00,25.9,20.6,30.53,North,0,0.0,0.0,80,0.00,,,0.00,WUHU21623XXSP,2013-01-03 16:36:00,
2013-01-03 11:41:00,26.2,20.9,30.52,SE,135,0.0,2.2,80,0.00,,,0.00,WUHU21623XXSP,2013-01-03 16:41:00,
2013-01-03 11:46:00,26.4,21.0,30.53,NE,45,0.0,2.2,80,0.00,,,0.00,WUHU21623XXSP,2013-01-03 16:46:00,
2013-01-03 11:51:00,26.6,21.2,30.53,ENE,67,0.0,0.0,80,0.00,,,0.00,WUHU21623XXSP,2013-01-03 16:51:00,
2013-01-03 11:56:00,26.8,21.4,30.53,ENE,67,0.0,0.0,80,0.00,,,0.00,WUHU21623XXSP,2013-01-03 16:56:00,
2013-01-03 12:01:00,26.8,21.4,30.52,NE,45,0.0,0.0,80,0.00,,,0.00,WUHU21623XXSP,2013-01-03 17:01:00,
2013-01-03 12:06:00,26.8,21.4,30.52,South,180,0.0,0.0,80,0.00,,,0.00,WUHU21623XXSP,2013-01-03 17:06:00,
2013-01-03 12:11:00,27.1,21.7,30.52,ENE,67,0.0,0.0,80,0.00,,,0.00,WUHU21623XXSP,2013-01-03 17:11:00,
2013-01-03 12:16:00,27.1,21.7,30.52,NE,45,0.0,0.0,80,0.00,,,0.00,WUHU21623XXSP,2013-01-03 17:16:00,
2013-01-03 12:21:00,27.1,21.4,30.51,East,90,0.0,0.0,79,0.00,,,0.00,WUHU21623XXSP,2013-01-03 17:21:00,
2013-01-03 12:26:00,27.1,21.4,30.51,ENE,67,0.0,0.0,79,0.00,,,0.00,WUHU21623XXSP,2013-01-03 17:26:00,
2013-01-03 12:31:00,27.0,21.3,30.51,SE,135,0.0,0.0,79,0.00,,,0.00,WUHU21623XXSP,2013-01-03 17:31:00,
2013-01-03 12:36:00,27.1,21.7,30.50,East,90,0.0,0.0,80,0.00,,,0.00,WUHU21623XXSP,2013-01-03 17:36:00,
2013-01-03 12:41:00,27.1,21.7,30.50,ENE,67,0.0,0.0,80,0.00,,,0.00,WUHU21623XXSP,2013-01-03 17:41:00,
2013-01-03 12:46:00,27.1,21.7,30.50,SSE,157,0.0,0.0,80,0.00,,,0.00,WUHU21623XXSP,2013-01-03 17:46:00,
2013-01-03 12:51:00,27.1,21.7,30.50,ESE,112,0.0,0.0,80,0.00,,,0.00,WUHU21623XXSP,2013-01-03 17:51:00,
2013-01-03 12:56:00,27.3,21.9,30.50,NNE,22,0.0,4.7,80,0.00,,,0.00,WUHU21623XXSP,2013-01-03 17:56:00,
2013-01-03 13:01:00,27.5,22.1,30.50,East,90,0.0,4.7,80,0.00,,,0.00,WUHU21623XXSP,2013-01-03 18:01:00,
2013-01-03 13:06:00,27.3,21.9,30.50,SE,135,0.0,2.0,80,0.00,,,0.00,WUHU21623XXSP,2013-01-03 18:06:00,
2013-01-03 13:11:00,27.3,21.9,30.50,ENE,67,2.9,2.9,80,0.00,,,0.00,WUHU21623XXSP,2013-01-03 18:11:00,
2013-01-03 13:16:00,27.5,22.1,30.50,East,90,0.9,2.9,80,0.00,,,0.00,WUHU21623XXSP,2013-01-03 18:16:00,
2013-01-03 13:21:00,27.5,22.1,30.50,North,0,0.0,0.9,80,0.00,,,0.00,WUHU21623XXSP,2013-01-03 18:21:00,
2013-01-03 13:26:00,27.5,21.8,30.51,SSE,157,1.6,3.1,79,0.00,,,0.00,WUHU21623XXSP,2013-01-03 18:26:00,
2013-01-03 13:31:00,27.5,21.8,30.50,East,90,0.0,3.1,79,0.00,,,0.00,WUHU21623XXSP,2013-01-03 18:31:00,
2013-01-03 13:36:00,27.5,21.8,30.50,ESE,112,0.0,0.9,79,0.00,,,0.00,WUHU21623XXSP,2013-01-03 18:36:00,
2013-01-03 13:41:00,27.5,21.8,30.50,SSE,157,0.0,0.0,79,0.00,,,0.00,WUHU21623XXSP,2013-01-03 18:41:00,
2013-01-03 13:46:00,27.5,21.8,30.50,ESE,112,0.0,0.0,79,0.00,,,0.00,WUHU21623XXSP,2013-01-03 18:46:00,
2013-01-03 13:52:00,27.7,22.3,30.50,ESE,112,0.0,0.0,80,0.00,,,0.00,WUHU21623XXSP,2013-01-03 18:52:00,
2013-01-03 13:57:00,27.7,22.3,30.51,SE,135,0.0,0.0,80,0.00,,,0.00,WUHU21623XXSP,2013-01-03 18:57:00,
2013-01-03 14:02:00,27.9,22.5,30.50,SE,135,0.0,2.7,80,0.00,,,0.00,WUHU21623XXSP,2013-01-03 19:02:00,
2013-01-03 14:07:00,28.0,22.6,30.50,SE,135,0.0,5.8,80,0.00,,,0.00,WUHU21623XXSP,2013-01-03 19:07:00,
2013-01-03 14:12:00,28.0,22.3,30.50,East,90,0.0,5.8,79,0.00,,,0.00,WUHU21623XXSP,2013-01-03 19:12:00,
2013-01-03 14:17:00,28.2,22.5,30.50,SSE,157,0.0,0.0,79,0.00,,,0.00,WUHU21623XXSP,2013-01-03 19:17:00,
2013-01-03 14:54:00,28.2,22.2,30.51,NE,45,8.1,8.1,78,0.00,,,0.00,WUHU21623XXSP,2013-01-03 19:54:00,
2013-01-03 14:59:00,28.2,22.2,30.51,ENE,67,2.5,8.1,78,0.00,,,0.00,WUHU21623XXSP,2013-01-03 19:59:00,
2013-01-03 15:04:00,28.2,22.2,30.52,ENE,67,2.0,3.4,78,0.00,,,0.00,WUHU21623XXSP,2013-01-03 20:04:00,
2013-01-03 15:09:00,28.6,22.2,30.52,SE,135,0.0,2.0,77,0.00,,,0.00,WUHU21623XXSP,2013-01-03 20:09:00,
2013-01-03 15:14:00,28.2,21.9,30.53,SSW,202,0.0,0.0,77,0.00,,,0.00,WUHU21623XXSP,2013-01-03 20:14:00,
2013-01-03 15:18:00,28.2,22.2,30.53,WSW,247,3.6,3.6,78,0.00,,,0.00,WUHU21623XXSP,2013-01-03 20:18:00,
2013-01-03 15:23:00,28.2,21.9,30.52,ESE,112,0.0,3.6,77,0.00,,,0.00,WUHU21623XXSP,2013-01-03 20:23:00,
2013-01-03 15:29:00,28.2,21.9,30.52,SE,135,0.0,1.8,77,0.00,,,0.00,WUHU21623XXSP,2013-01-03 20:29:00,
2013-01-03 15:33:00,28.2,21.9,30.52,ESE,112,0.0,1.8,77,0.00,,,0.00,WUHU21623XXSP,2013-01-03 20:33:00,
2013-01-03 15:38:00,28.2,21.9,30.53,ESE,112,0.0,4.7,77,0.00,,,0.00,WUHU21623XXSP,2013-01-03 20:38:00,
2013-01-03 15:43:00,28.2,21.9,30.53,East,90,0.0,4.7,77,0.00,,,0.00,WUHU21623XXSP,2013-01-03 20:43:00,
2013-01-03 15:48:00,28.2,21.9,30.53,East,90,0.0,0.0,77,0.00,,,0.00,WUHU21623XXSP,2013-01-03 20:48:00,
2013-01-03 15:53:00,28.2,21.9,30.53,SSE,157,0.0,0.0,77,0.00,,,0.00,WUHU21623XXSP,2013-01-03 20:53:00,
2013-01-03 15:58:00,28.2,21.9,30.54,SE,135,0.0,0.0,77,0.00,,,0.00,WUHU21623XXSP,2013-01-03 20:58:00,
2013-01-03 16:04:00,28.2,21.9,30.54,SW,225,0.0,0.0,77,0.00,,,0.00,WUHU21623XXSP,2013-01-03 21:04:00,
2013-01-03 16:08:00,28.2,21.9,30.54,ESE,112,0.0,0.0,77,0.00,,,0.00,WUHU21623XXSP,2013-01-03 21:08:00,
2013-01-03 16:13:00,28.2,21.9,30.54,ESE,112,0.0,0.0,77,0.00,,,0.00,WUHU21623XXSP,2013-01-03 21:13:00,
2013-01-03 16:18:00,28.2,21.9,30.54,East,90,0.0,0.0,77,0.00,,,0.00,WUHU21623XXSP,2013-01-03 21:18:00,
2013-01-03 16:23:00,28.0,21.7,30.55,ESE,112,0.0,0.0,77,0.00,,,0.00,WUHU21623XXSP,2013-01-03 21:23:00,
2013-01-03 16:29:00,28.0,21.7,30.55,ESE,112,0.0,4.5,77,0.00,,,0.00,WUHU21623XXSP,2013-01-03 21:29:00,
2013-01-03 16:34:00,28.2,21.9,30.55,SSW,202,0.0,4.5,77,0.00,,,0.00,WUHU21623XXSP,2013-01-03 21:34:00,
2013-01-03 16:38:00,28.0,21.7,30.55,East,90,2.2,2.2,77,0.00,,,0.00,WUHU21623XXSP,2013-01-03 21:38:00,
2013-01-03 16:44:00,28.0,21.7,30.55,East,90,2.2,2.2,77,0.00,,,0.00,WUHU21623XXSP,2013-01-03 21:44:00,
2013-01-03 16:49:00,28.0,21.7,30.55,NE,45,0.0,2.2,77,0.00,,,0.00,WUHU21623XXSP,2013-01-03 21:49:00,
2013-01-03 16:54:00,28.0,21.7,30.56,South,180,0.0,0.0,77,0.00,,,0.00,WUHU21623XXSP,2013-01-03 21:54:00,
2013-01-03 16:59:00,28.0,21.7,30.56,ESE,112,0.0,0.0,77,0.00,,,0.00,WUHU21623XXSP,2013-01-03 21:59:00,
2013-01-03 17:04:00,27.7,21.4,30.56,ESE,112,0.0,0.0,77,0.00,,,0.00,WUHU21623XXSP,2013-01-03 22:04:00,
2013-01-03 17:09:00,27.7,21.4,30.56,East,90,0.0,0.0,77,0.00,,,0.00,WUHU21623XXSP,2013-01-03 22:09:00,
2013-01-03 17:14:00,27.7,21.4,30.56,ENE,67,0.0,0.0,77,0.00,,,0.00,WUHU21623XXSP,2013-01-03 22:14:00,
2013-01-03 17:19:00,27.7,21.4,30.56,South,180,0.0,0.0,77,0.00,,,0.00,WUHU21623XXSP,2013-01-03 22:19:00,
2013-01-03 17:24:00,27.7,21.4,30.56,South,180,0.7,0.7,77,0.00,,,0.00,WUHU21623XXSP,2013-01-03 22:24:00,
2013-01-03 17:29:00,27.7,21.4,30.56,East,90,0.0,0.7,77,0.00,,,0.00,WUHU21623XXSP,2013-01-03 22:29:00,
2013-01-03 17:34:00,27.7,21.4,30.57,SSE,157,0.0,0.0,77,0.00,,,0.00,WUHU21623XXSP,2013-01-03 22:34:00,
2013-01-03 17:39:00,27.5,21.4,30.57,ENE,67,1.3,1.3,77,0.00,,,0.00,WUHU21623XXSP,2013-01-03 22:39:00,
2013-01-03 17:44:00,27.5,21.2,30.57,South,180,0.0,1.3,77,0.00,,,0.00,WUHU21623XXSP,2013-01-03 22:44:00,
2013-01-03 17:49:00,27.5,21.2,30.58,ENE,67,0.0,0.0,77,0.00,,,0.00,WUHU21623XXSP,2013-01-03 22:49:00,
2013-01-03 17:54:00,27.5,21.2,30.58,NNE,22,0.0,0.0,77,0.00,,,0.00,WUHU21623XXSP,2013-01-03 22:54:00,
2013-01-03 17:59:00,27.5,21.2,30.58,SE,135,0.0,0.0,77,0.00,,,0.00,WUHU21623XXSP,2013-01-03 22:59:00,
2013-01-03 18:04:00,27.5,21.2,30.59,South,180,0.0,1.8,77,0.00,,,0.00,WUHU21623XXSP,2013-01-03 23:04:00,
2013-01-03 18:09:00,27.5,21.5,30.59,ESE,112,0.0,1.8,78,0.00,,,0.00,WUHU21623XXSP,2013-01-03 23:09:00,
2013-01-03 18:14:00,27.5,21.5,30.59,ESE,112,2.0,2.0,78,0.00,,,0.00,WUHU21623XXSP,2013-01-03 23:14:00,
2013-01-03 18:19:00,27.5,21.5,30.59,ENE,67,3.8,3.8,78,0.00,,,0.00,WUHU21623XXSP,2013-01-03 23:19:00,
2013-01-03 18:24:00,27.5,21.5,30.59,SSE,157,0.0,3.8,78,0.00,,,0.00,WUHU21623XXSP,2013-01-03 23:24:00,
2013-01-03 18:29:00,27.5,21.5,30.59,East,90,0.0,0.0,78,0.00,,,0.00,WUHU21623XXSP,2013-01-03 23:29:00,
2013-01-03 18:34:00,27.7,21.7,30.60,SSW,202,0.0,0.0,78,0.00,,,0.00,WUHU21623XXSP,2013-01-03 23:34:00,
2013-01-03 18:39:00,27.7,21.7,30.60,ESE,112,0.0,0.0,78,0.00,,,0.00,WUHU21623XXSP,2013-01-03 23:39:00,
2013-01-03 18:44:00,27.7,21.7,30.60,ESE,112,2.2,2.2,78,0.00,,,0.00,WUHU21623XXSP,2013-01-03 23:44:00,
2013-01-03 18:49:00,27.7,21.7,30.60,ESE,112,0.0,2.2,78,0.00,,,0.00,WUHU21623XXSP,2013-01-03 23:49:00,
2013-01-03 18:54:00,27.7,21.7,30.60,East,90,2.0,2.0,78,0.00,,,0.00,WUHU21623XXSP,2013-01-03 23:54:00,
2013-01-03 18:59:00,27.7,21.7,30.60,ESE,112,0.0,2.0,78,0.00,,,0.00,WUHU21623XXSP,2013-01-03 23:59:00,
2013-01-03 19:04:00,27.7,21.7,30.60,SSE,157,0.0,0.0,78,0.00,,,0.00,WUHU21623XXSP,2013-01-04 00:04:00,
2013-01-03 19:09:00,27.7,21.7,30.60,SE,135,2.0,2.0,78,0.00,,,0.00,WUHU21623XXSP,2013-01-04 00:09:00,
2013-01-03 19:14:00,27.7,21.7,30.60,ESE,112,0.0,3.1,78,0.00,,,0.00,WUHU21623XXSP,2013-01-04 00:14:00,
2013-01-03 19:19:00,27.7,21.7,30.60,East,90,0.0,3.1,78,0.00,,,0.00,WUHU21623XXSP,2013-01-04 00:19:00,
2013-01-03 19:24:00,27.7,21.7,30.60,East,90,0.0,0.0,78,0.00,,,0.00,WUHU21623XXSP,2013-01-04 00:24:00,
2013-01-03 19:29:00,27.7,21.7,30.60,SSE,157,0.0,0.0,78,0.00,,,0.00,WUHU21623XXSP,2013-01-04 00:29:00,
2013-01-03 19:34:00,27.7,21.7,30.60,ENE,67,0.0,0.0,78,0.00,,,0.00,WUHU21623XXSP,2013-01-04 00:34:00,
2013-01-03 19:39:00,27.7,21.7,30.60,NE,45,0.0,0.0,78,0.00,,,0.00,WUHU21623XXSP,2013-01-04 00:39:00,
2013-01-03 19:44:00,27.7,21.7,30.60,ENE,67,0.0,0.0,78,0.00,,,0.00,WUHU21623XXSP,2013-01-04 00:44:00,
2013-01-03 19:49:00,27.9,21.8,30.59,NE,45,0.0,0.0,78,0.00,,,0.00,WUHU21623XXSP,2013-01-04 00:49:00,
2013-01-03 19:54:00,27.7,21.7,30.60,East,90,0.0,0.0,78,0.00,,,0.00,WUHU21623XXSP,2013-01-04 00:54:00,
2013-01-03 19:59:00,27.7,21.7,30.60,East,90,0.0,3.6,78,0.00,,,0.00,WUHU21623XXSP,2013-01-04 00:59:00,
2013-01-03 20:04:00,28.0,22.0,30.59,East,90,0.0,3.6,78,0.00,,,0.00,WUHU21623XXSP,2013-01-04 01:04:00,
2013-01-03 20:09:00,28.0,22.0,30.59,NNW,337,0.0,0.0,78,0.00,,,0.00,WUHU21623XXSP,2013-01-04 01:09:00,
2013-01-03 20:14:00,28.0,21.7,30.60,ESE,112,0.0,0.0,77,0.00,,,0.00,WUHU21623XXSP,2013-01-04 01:14:00,
2013-01-03 20:19:00,28.0,21.7,30.60,South,180,0.0,2.0,77,0.00,,,0.00,WUHU21623XXSP,2013-01-04 01:19:00,
2013-01-03 20:24:00,28.0,21.7,30.60,East,90,0.0,2.0,77,0.00,,,0.00,WUHU21623XXSP,2013-01-04 01:24:00,
2013-01-03 20:29:00,28.0,21.7,30.60,East,90,0.0,0.0,77,0.00,,,0.00,WUHU21623XXSP,2013-01-04 01:29:00,
2013-01-03 20:34:00,28.0,21.7,30.60,East,90,0.0,0.0,77,0.00,,,0.00,WUHU21623XXSP,2013-01-04 01:34:00,
2013-01-03 20:39:00,28.0,21.7,30.60,ENE,67,0.0,0.0,77,0.00,,,0.00,WUHU21623XXSP,2013-01-04 01:39:00,
2013-01-03 20:44:00,28.0,21.7,30.60,East,90,0.0,0.0,77,0.00,,,0.00,WUHU21623XXSP,2013-01-04 01:44:00,
2013-01-03 20:49:00,28.0,21.7,30.60,NE,45,0.0,0.0,77,0.00,,,0.00,WUHU21623XXSP,2013-01-04 01:49:00,
2013-01-03 20:54:00,28.0,21.7,30.60,East,90,0.0,0.0,77,0.00,,,0.00,WUHU21623XXSP,2013-01-04 01:54:00,
2013-01-03 21:00:00,28.0,21.7,30.60,NNE,22,0.0,0.0,77,0.00,,,0.00,WUHU21623XXSP,2013-01-04 02:00:00,
2013-01-03 21:05:00,28.0,21.7,30.60,NNW,337,0.0,0.0,77,0.00,,,0.00,WUHU21623XXSP,2013-01-04 02:05:00,
2013-01-03 21:10:00,28.0,22.0,30.60,East,90,0.0,0.0,78,0.00,,,0.00,WUHU21623XXSP,2013-01-04 02:10:00,
2013-01-03 21:15:00,28.0,22.0,30.60,ESE,112,0.0,0.0,78,0.00,,,0.00,WUHU21623XXSP,2013-01-04 02:15:00,
2013-01-03 21:20:00,28.0,22.0,30.59,ESE,112,1.8,1.8,78,0.00,,,0.00,WUHU21623XXSP,2013-01-04 02:20:00,
2013-01-03 21:25:00,28.0,21.8,30.59,ESE,112,0.0,1.8,78,0.00,,,0.00,WUHU21623XXSP,2013-01-04 02:25:00,
2013-01-03 21:30:00,28.0,21.7,30.59,ENE,67,0.0,0.0,77,0.00,,,0.00,WUHU21623XXSP,2013-01-04 02:30:00,
2013-01-03 21:35:00,28.0,21.7,30.58,East,90,1.8,1.8,77,0.00,,,0.00,WUHU21623XXSP,2013-01-04 02:35:00,
2013-01-03 21:40:00,27.9,21.5,30.59,SE,135,0.0,1.8,77,0.00,,,0.00,WUHU21623XXSP,2013-01-04 02:40:00,
2013-01-03 21:45:00,28.0,21.7,30.59,SSE,157,0.0,0.0,77,0.00,,,0.00,WUHU21623XXSP,2013-01-04 02:45:00,
2013-01-03 21:50:00,28.0,21.7,30.58,East,90,0.0,0.0,77,0.00,,,0.00,WUHU21623XXSP,2013-01-04 02:50:00,
2013-01-03 21:55:00,28.0,21.7,30.58,NE,45,0.0,0.0,77,0.00,,,0.00,WUHU21623XXSP,2013-01-04 02:55:00,
2013-01-03 22:00:00,28.0,21.7,30.59,East,90,1.6,2.0,77,0.00,,,0.00,WUHU21623XXSP,2013-01-04 03:00:00,
2013-01-03 22:05:00,28.0,21.7,30.58,East,90,0.0,2.0,77,0.00,,,0.00,WUHU21623XXSP,2013-01-04 03:05:00,
2013-01-03 22:10:00,28.0,21.7,30.58,NE,45,2.5,2.5,77,0.00,,,0.00,WUHU21623XXSP,2013-01-04 03:10:00,
2013-01-03 22:15:00,28.0,21.7,30.58,East,90,0.0,2.5,77,0.00,,,0.00,WUHU21623XXSP,2013-01-04 03:15:00,
2013-01-03 22:20:00,28.0,21.7,30.58,ENE,67,0.0,2.5,77,0.00,,,0.00,WUHU21623XXSP,2013-01-04 03:20:00,
2013-01-03 22:25:00,28.0,21.7,30.58,NE,45,0.0,3.1,77,0.00,,,0.00,WUHU21623XXSP,2013-01-04 03:25:00,
2013-01-03 22:30:00,28.0,21.7,30.58,ESE,112,2.2,3.1,77,0.00,,,0.00,WUHU21623XXSP,2013-01-04 03:30:00,
2013-01-03 22:35:00,28.0,21.7,30.58,ENE,67,0.0,2.2,77,0.00,,,0.00,WUHU21623XXSP,2013-01-04 03:35:00,
2013-01-03 22:40:00,28.0,21.7,30.57,East,90,0.0,2.2,77,0.00,,,0.00,WUHU21623XXSP,2013-01-04 03:40:00,
2013-01-03 22:45:00,28.0,22.0,30.57,East,90,0.0,1.8,77,0.00,,,0.00,WUHU21623XXSP,2013-01-04 03:45:00,
2013-01-03 22:50:00,28.0,21.7,30.58,East,90,0.0,1.8,77,0.00,,,0.00,WUHU21623XXSP,2013-01-04 03:50:00,
2013-01-03 22:55:00,28.0,21.7,30.58,South,180,0.0,0.0,77,0.00,,,0.00,WUHU21623XXSP,2013-01-04 03:55:00,
2013-01-03 23:00:00,28.0,21.7,30.58,North,0,0.0,0.0,77,0.00,,,0.00,WUHU21623XXSP,2013-01-04 04:00:00,
2013-01-03 23:05:00,28.0,21.7,30.58,East,90,0.0,0.0,77,0.00,,,0.00,WUHU21623XXSP,2013-01-04 04:05:00,
2013-01-03 23:10:00,28.0,21.7,30.58,NNW,337,0.0,0.0,77,0.00,,,0.00,WUHU21623XXSP,2013-01-04 04:10:00,
2013-01-03 23:15:00,28.0,21.7,30.58,East,90,0.0,2.7,77,0.00,,,0.00,WUHU21623XXSP,2013-01-04 04:15:00,
2013-01-03 23:20:00,28.0,21.7,30.57,North,0,0.0,2.7,77,0.00,,,0.00,WUHU21623XXSP,2013-01-04 04:20:00,
2013-01-03 23:25:00,28.0,21.7,30.57,North,0,0.0,0.0,77,0.00,,,0.00,WUHU21623XXSP,2013-01-04 04:25:00,
2013-01-03 23:30:00,28.0,21.7,30.57,East,90,2.7,7.8,77,0.00,,,0.00,WUHU21623XXSP,2013-01-04 04:30:00,
2013-01-03 23:35:00,28.0,21.7,30.57,ESE,112,2.9,7.8,77,0.00,,,0.00,WUHU21623XXSP,2013-01-04 04:35:00,
2013-01-03 23:40:00,28.0,21.4,30.56,ESE,112,0.0,2.9,76,0.00,,,0.00,WUHU21623XXSP,2013-01-04 04:40:00,
2013-01-03 23:45:00,28.0,21.4,30.56,NNE,22,1.6,3.4,76,0.00,,,0.00,WUHU21623XXSP,2013-01-04 04:45:00,
2013-01-03 23:50:00,28.0,21.4,30.56,East,90,0.0,3.4,76,0.00,,,0.00,WUHU21623XXSP,2013-01-04 04:50:00,
2013-01-03 23:55:00,28.0,21.4,30.56,South,180,0.0,1.6,76,0.00,,,0.00,WUHU21623XXSP,2013-01-04 04:55:00,